Time;durP1;ratioP1;P1;durP2;ratioP2;P2;SDS_P1;SDS_P2;PMS_P1;PMS_P2;Temp;Humidity;BMP_temperature;BMP_pressure;BME280_temperature;BME280_humidity;BME280_pressure;Samples;Min_cycle;Max_cycle;Signal;HPM_P1;HPM_P2
2022/04/11 00:01:48;;;;;;;4.47;3.15;;;;;;;6.12;69.87;98788.47;4957195;28;20142;-75
2022/04/11 00:04:14;;;;;;;4.90;3.33;;;;;;;5.97;70.58;98779.03;4957130;28;20039;-75
2022/04/11 00:06:40;;;;;;;6.88;3.65;;;;;;;5.95;71.24;98772.16;4974321;28;20046;-76
2022/04/11 00:09:05;;;;;;;6.38;3.25;;;;;;;5.92;71.31;98754.16;4974130;28;20039;-75
2022/04/11 00:11:31;;;;;;;7.10;3.72;;;;;;;6.02;70.77;98772.16;4973325;28;20069;-75
2022/04/11 00:13:57;;;;;;;5.10;3.25;;;;;;;6.01;70.76;98765.31;4972151;28;20034;-75
2022/04/11 00:16:23;;;;;;;5.30;3.30;;;;;;;5.97;70.55;98771.31;4956847;28;20046;-75
2022/04/11 00:18:48;;;;;;;5.18;3.42;;;;;;;5.90;71.33;98772.13;4973656;28;20051;-76
2022/04/11 00:21:14;;;;;;;5.43;3.95;;;;;;;5.82;71.77;98769.56;4973692;28;20506;-75
2022/04/11 00:23:40;;;;;;;10.77;8.00;;;;;;;5.80;72.29;98766.13;4972309;28;20129;-76
2022/04/11 00:26:05;;;;;;;6.60;4.82;;;;;;;5.77;72.22;98755.84;4956443;28;20038;-75
2022/04/11 00:28:31;;;;;;;;;;;;;;;5.82;72.73;98759.28;4972951;28;20043;-75
2022/04/11 00:30:57;;;;;;;6.57;3.72;;;;;;;5.85;71.91;98753.25;4973599;28;19918;-75
2022/04/11 00:33:23;;;;;;;6.25;4.45;;;;;;;5.90;71.02;98756.69;4972211;28;20057;-75
2022/04/11 00:35:49;;;;;;;6.93;4.20;;;;;;;5.91;71.18;98755.84;4973590;28;20043;-75
2022/04/11 00:38:15;;;;;;;6.32;4.20;;;;;;;5.95;70.71;98762.72;4972623;28;20039;-75
2022/04/11 00:40:40;;;;;;;6.13;4.40;;;;;;;5.83;70.80;98763.56;4972460;28;20093;-75
2022/04/11 00:43:06;;;;;;;5.47;4.07;;;;;;;5.85;71.33;98760.97;4973724;28;20398;-75
2022/04/11 00:45:32;;;;;;;6.22;4.35;;;;;;;5.86;71.55;98770.41;4955997;28;20046;-75
2022/04/11 00:47:57;;;;;;;7.95;4.45;;;;;;;5.81;71.83;98751.53;4973228;28;20042;-75
2022/04/11 00:50:23;;;;;;;5.97;4.38;;;;;;;5.89;71.07;98749.81;4971490;28;20046;-75
2022/04/11 00:52:51;;;;;;;7.65;4.30;;;;;;;5.84;71.04;98749.81;4972039;28;20493;-75
2022/04/11 00:55:18;;;;;;;6.85;5.00;;;;;;;5.80;71.50;98748.09;4952816;29;20045;-75
2022/04/11 00:57:43;;;;;;;9.63;4.88;;;;;;;5.65;72.26;98730.09;4979841;28;20041;-75
2022/04/11 01:00:10;;;;;;;6.47;5.18;;;;;;;5.63;71.48;98743.78;4972000;28;20043;-75
2022/04/11 01:02:36;;;;;;;6.60;5.28;;;;;;;5.61;72.41;98739.50;4973085;28;20493;-75
2022/04/11 01:05:01;;;;;;;7.47;4.90;;;;;;;5.52;73.17;98729.22;4971990;28;20133;-75
2022/04/11 01:07:28;;;;;;;6.50;4.97;;;;;;;5.40;72.91;98729.19;4955956;28;20077;-75
2022/04/11 01:09:54;;;;;;;7.07;4.60;;;;;;;5.52;72.56;98744.66;4971469;28;20088;-75
2022/04/11 01:12:21;;;;;;;6.30;4.82;;;;;;;5.49;73.43;98728.34;4953145;28;20139;-75
2022/04/11 01:14:46;;;;;;;7.22;5.10;;;;;;;5.51;72.63;98737.78;4949210;28;20041;-75
2022/04/11 01:17:12;;;;;;;5.80;4.15;;;;;;;5.52;72.65;98734.38;4971714;28;20038;-75
2022/04/11 01:19:38;;;;;;;7.40;5.13;;;;;;;5.51;72.48;98735.22;4971470;28;20522;-75
2022/04/11 01:22:04;;;;;;;6.20;4.38;;;;;;;5.53;73.36;98725.78;4968153;28;20039;-75
2022/04/11 01:24:31;;;;;;;5.72;4.43;;;;;;;5.42;72.86;98711.22;4946788;28;20406;-75
2022/04/11 01:26:58;;;;;;;5.97;4.75;;;;;;;5.44;73.48;98705.19;4966965;28;20129;-75
2022/04/11 01:29:25;;;;;;;8.75;5.30;;;;;;;5.48;73.57;98717.22;4971551;28;20046;-75
2022/04/11 01:31:51;;;;;;;6.35;4.78;;;;;;;5.47;73.63;98720.63;4955756;28;20042;-75
2022/04/11 01:34:18;;;;;;;6.00;4.47;;;;;;;5.49;73.79;98715.50;4971424;28;20049;-75
2022/04/11 01:36:44;;;;;;;;;;;;;;;5.56;73.37;98723.22;4971865;28;20394;-75
2022/04/11 01:39:12;;;;;;;5.43;4.07;;;;;;;5.58;72.76;98713.78;4972649;28;19914;-75
2022/04/11 01:41:38;;;;;;;6.70;4.68;;;;;;;5.61;72.26;98720.66;4936100;29;20054;-75
2022/04/11 01:44:04;;;;;;;5.72;4.53;;;;;;;5.58;72.46;98713.78;4971420;28;20514;-76
2022/04/11 01:46:30;;;;;;;5.30;4.00;;;;;;;5.54;73.16;98712.09;4971614;28;20254;-75
2022/04/11 01:49:06;;;;;;;6.63;4.60;;;;;;;5.48;72.78;98711.22;4974392;28;20035;-75
2022/04/11 01:51:31;;;;;;;5.95;4.05;;;;;;;5.44;73.73;98696.63;4975548;28;20042;-75
2022/04/11 01:53:57;;;;;;;5.63;3.88;;;;;;;5.46;73.88;98693.22;4976720;28;20493;-75
2022/04/11 01:56:23;;;;;;;6.65;4.20;;;;;;;5.44;73.57;98692.34;4975521;28;20050;-76
2022/04/11 01:58:48;;;;;;;7.93;4.53;;;;;;;5.46;73.77;98682.91;4975130;28;20046;-76
2022/04/11 02:01:18;;;;;;;7.03;4.53;;;;;;;5.36;72.17;98676.06;4975243;28;20174;-75
2022/04/11 02:03:44;;;;;;;6.28;4.38;;;;;;;5.32;72.92;98658.91;4959362;28;20089;-75
2022/04/11 02:06:10;;;;;;;5.40;3.80;;;;;;;5.40;73.24;98651.19;4954943;28;20352;-75
2022/04/11 02:08:36;;;;;;;5.72;3.67;;;;;;;5.38;74.01;98648.63;4959394;28;20089;-75
2022/04/11 02:11:08;;;;;;;5.60;3.80;;;;;;;5.39;73.64;98623.75;4960181;28;20047;-75
2022/04/11 02:13:34;;;;;;;5.32;3.90;;;;;;;5.64;73.11;98629.75;4975047;28;20046;-75
2022/04/11 02:15:59;;;;;;;5.63;3.90;;;;;;;5.51;71.55;98609.19;4975022;28;20026;-75
2022/04/11 02:18:25;;;;;;;5.43;3.95;;;;;;;5.61;71.71;98616.03;4974585;28;20050;-76
2022/04/11 02:20:51;;;;;;;5.90;3.45;;;;;;;5.70;71.78;98619.44;4974846;28;20039;-75
2022/04/11 02:23:16;;;;;;;4.80;3.47;;;;;;;5.58;71.03;98616.00;4971771;28;20081;-75
2022/04/11 02:25:42;;;;;;;7.15;4.10;;;;;;;5.56;72.01;98643.47;4961699;28;20042;-74
2022/04/11 02:28:09;;;;;;;7.38;3.85;;;;;;;5.51;71.97;98652.06;4974869;28;20038;-75
2022/04/11 02:30:35;;;;;;;4.25;3.35;;;;;;;5.46;72.25;98648.63;4959246;28;20035;-75
2022/04/11 02:33:00;;;;;;;6.28;3.95;;;;;;;5.21;72.48;98599.75;4974849;28;20058;-75
2022/04/11 02:35:26;;;;;;;5.68;3.63;;;;;;;5.42;72.82;98632.34;4974584;28;20034;-74
2022/04/11 02:37:52;;;;;;;4.95;3.42;;;;;;;5.42;73.53;98657.19;4975598;28;20433;-75
2022/04/11 02:40:18;;;;;;;;;;;;;;;5.37;72.67;98646.06;4976074;28;20034;-75
2022/04/11 02:43:02;;;;;;;7.03;3.45;;;;;;;5.26;72.75;98636.59;4974527;28;20004;-75
2022/04/11 02:45:30;;;;;;;4.82;3.45;;;;;;;5.30;72.85;98655.47;4974385;28;20042;-75
2022/04/11 02:47:55;;;;;;;4.68;3.10;;;;;;;5.27;73.03;98666.63;4974343;28;20038;-75
2022/04/11 02:50:21;;;;;;;6.53;3.58;;;;;;;5.29;72.84;98651.19;4973996;28;20438;-75
2022/04/11 02:52:59;;;;;;;6.32;3.50;;;;;;;5.17;73.23;98617.75;4974102;28;20062;-75
2022/04/11 02:55:25;;;;;;;4.63;3.45;;;;;;;5.26;72.99;98640.88;4976027;28;20053;-75
2022/04/11 02:57:51;;;;;;;3.58;3.10;;;;;;;5.24;72.85;98615.19;4974077;28;20038;-75
2022/04/11 03:00:18;;;;;;;4.35;3.33;;;;;;;5.29;72.93;98599.75;4957016;28;20047;-75
2022/04/11 03:02:52;;;;;;;5.65;3.15;;;;;;;5.35;72.45;98571.44;4973641;28;20031;-75
2022/04/11 03:05:20;;;;;;;5.35;2.90;;;;;;;5.36;71.09;98547.47;4959197;28;20047;-75
2022/04/11 03:07:47;;;;;;;4.60;2.85;;;;;;;5.34;71.27;98550.03;4933789;28;20399;-75
2022/04/11 03:10:14;;;;;;;3.45;2.67;;;;;;;5.47;71.47;98589.47;4974335;28;20047;-75
2022/04/11 03:12:41;;;;;;;4.03;2.55;;;;;;;5.47;71.44;98584.31;4954452;28;20035;-75
2022/04/11 03:15:09;;;;;;;4.30;2.70;;;;;;;5.50;70.66;98580.91;4973952;28;20039;-75
2022/04/11 03:17:37;;;;;;;4.63;3.10;;;;;;;5.38;71.07;98561.19;4955244;28;20062;-75
2022/04/11 03:20:04;;;;;;;6.88;3.92;;;;;;;5.48;71.55;98562.88;4969406;28;20464;-75
2022/04/11 03:22:33;;;;;;;4.55;2.88;;;;;;;5.58;71.32;98549.13;4973677;28;20129;-75
2022/04/11 03:25:04;;;;;;;5.70;2.35;;;;;;;5.56;70.42;98545.72;4973961;28;20046;-75
2022/04/11 03:27:30;;;;;;;3.90;1.92;;;;;;;5.55;70.89;98533.72;4973887;28;20094;-75
2022/04/11 03:29:56;;;;;;;;;;;;;;;5.59;71.83;98535.44;4974274;28;20034;-74
2022/04/11 03:32:23;;;;;;;4.43;1.70;;;;;;;5.60;71.10;98518.28;4972849;28;20325;-76
2022/04/11 03:34:51;;;;;;;2.65;1.55;;;;;;;5.61;70.11;98513.13;4961708;28;20665;-77
2022/04/11 03:37:18;;;;;;;5.53;1.80;;;;;;;5.65;70.45;98503.69;4989824;28;20105;-77
2022/04/11 03:39:54;;;;;;;3.47;1.50;;;;;;;5.78;70.42;98499.34;4939806;28;20035;-76
2022/04/11 03:42:21;;;;;;;5.15;1.80;;;;;;;5.72;69.76;98486.50;4944236;28;20067;-76
2022/04/11 03:44:47;;;;;;;3.08;1.88;;;;;;;5.77;69.47;98483.06;4941853;28;20106;-75
2022/04/11 03:47:17;;;;;;;4.13;1.60;;;;;;;5.74;69.58;98469.34;4958103;28;20039;-76
2022/04/11 03:49:43;;;;;;;2.92;1.73;;;;;;;5.72;69.17;98450.47;4938071;29;20054;-76
2022/04/11 03:52:36;;;;;;;3.78;1.45;;;;;;;5.88;69.97;98464.13;4972922;28;20061;-76
2022/04/11 03:55:07;;;;;;;2.28;1.40;;;;;;;5.76;68.96;98442.72;4958251;28;20047;-76
2022/04/11 03:57:33;;;;;;;2.42;1.17;;;;;;;5.65;69.33;98441.09;4957231;28;20038;-76
2022/04/11 04:00:01;;;;;;;3.58;1.10;;;;;;;5.58;69.41;98466.81;4957443;28;20042;-75
2022/04/11 04:02:32;;;;;;;2.67;1.30;;;;;;;5.56;69.93;98535.44;4976841;28;20043;-75
2022/04/11 04:04:58;;;;;;;3.03;1.38;;;;;;;5.68;70.78;98605.72;4972878;28;20049;-74
2022/04/11 04:07:25;;;;;;;3.38;1.30;;;;;;;5.83;69.88;98706.94;4972466;28;20030;-75
2022/04/11 04:09:51;;;;;;;10.23;1.33;;;;;;;5.79;68.85;98755.84;4990733;28;20039;-74
2022/04/11 04:12:20;;;;;;;5.68;1.23;;;;;;;5.38;70.58;98724.91;4973906;28;20125;-75
2022/04/11 04:15:11;;;;;;;4.25;1.40;;;;;;;5.44;71.81;98666.63;4960137;28;20418;-74
2022/04/11 04:17:42;;;;;;;3.17;1.35;;;;;;;5.67;70.53;98646.03;4972465;28;20138;-74
2022/04/11 04:20:09;;;;;;;2.42;1.42;;;;;;;5.85;70.77;98660.59;4972695;28;20365;-74
2022/04/11 04:22:35;;;;;;;4.25;1.55;;;;;;;5.86;69.84;98662.31;4969028;28;20042;-74
2022/04/11 04:25:02;;;;;;;13.65;1.95;;;;;;;5.97;70.24;98681.22;4966718;28;20045;-74
2022/04/11 04:27:28;;;;;;;4.43;1.48;;;;;;;5.82;68.89;98682.06;4955738;28;20023;-74
2022/04/11 04:29:54;;;;;;;3.67;1.88;;;;;;;5.76;70.61;98624.56;4971689;28;20461;-73
2022/04/11 04:32:22;;;;;;;3.25;1.52;;;;;;;5.64;70.59;98561.16;4970964;28;20053;-74
2022/04/11 04:34:49;;;;;;;4.45;2.10;;;;;;;5.54;71.35;98544.88;4972058;28;20031;-74
2022/04/11 04:37:15;;;;;;;;;;;;;;;5.68;72.13;98574.84;4971718;28;20129;-75
2022/04/11 04:39:41;;;;;;;5.25;2.13;;;;;;;5.35;71.60;98579.16;4971346;28;20343;-75
2022/04/11 04:42:07;;;;;;;3.83;1.92;;;;;;;5.31;73.49;98557.78;4952544;28;20035;-75
2022/04/11 04:44:33;;;;;;;4.75;2.10;;;;;;;5.54;73.41;98573.19;4966812;28;20050;-75
2022/04/11 04:47:01;;;;;;;3.30;2.13;;;;;;;5.41;72.38;98561.19;4971948;28;20397;-75
2022/04/11 04:49:45;;;;;;;4.10;2.22;;;;;;;5.44;72.68;98597.16;4972016;28;20490;-73
2022/04/11 04:52:13;;;;;;;4.38;2.15;;;;;;;5.42;73.86;98603.19;4953140;28;20520;-74
2022/04/11 04:54:51;;;;;;;4.80;2.30;;;;;;;5.23;73.36;98567.19;4967398;28;20038;-75
2022/04/11 04:57:17;;;;;;;;;;;;;;;5.72;73.22;98617.72;4955982;28;20049;-74
2022/04/11 04:59:43;;;;;;;3.22;1.92;;;;;;;5.80;72.55;98626.28;4974607;28;20008;-74
2022/04/11 05:02:15;;;;;;;5.55;2.00;;;;;;;5.90;71.71;98609.97;4943487;28;20035;-76
2022/04/11 05:04:41;;;;;;;6.88;2.05;;;;;;;5.97;72.25;98579.97;4971772;28;20043;-74
2022/04/11 05:07:08;;;;;;;3.72;2.45;;;;;;;5.88;71.45;98570.53;4955904;28;20034;-74
2022/04/11 05:09:36;;;;;;;6.18;3.50;;;;;;;5.95;71.93;98561.94;4971796;28;20034;-76
2022/04/11 05:12:03;;;;;;;4.10;2.63;;;;;;;5.83;71.57;98539.66;4971809;28;20042;-76
2022/04/11 05:14:29;;;;;;;7.75;3.65;;;;;;;6.01;71.35;98566.22;4971761;28;20445;-76
2022/04/11 05:17:03;;;;;;;6.15;3.13;;;;;;;5.95;71.84;98563.66;4971611;28;20038;-76
2022/04/11 05:19:29;;;;;;;3.50;2.40;;;;;;;6.05;71.39;98561.06;4936307;28;20061;-75
2022/04/11 05:21:55;;;;;;;6.13;2.47;;;;;;;6.00;72.23;98560.22;4964247;28;20038;-75
2022/04/11 05:24:23;;;;;;;7.00;2.83;;;;;;;6.02;71.78;98550.78;4971328;28;20133;-75
2022/04/11 05:26:49;;;;;;;3.25;2.40;;;;;;;6.08;71.32;98534.44;4971464;28;20038;-75
2022/04/11 05:29:15;;;;;;;6.45;3.20;;;;;;;5.98;71.30;98517.31;4971420;28;20521;-76
2022/04/11 05:31:41;;;;;;;4.20;2.90;;;;;;;5.97;71.18;98531.91;4973341;28;20050;-77
2022/04/11 05:34:08;;;;;;;4.35;2.95;;;;;;;5.69;71.25;98501.97;4955587;28;20054;-75
2022/04/11 05:36:33;;;;;;;;;;;;;;;6.03;71.42;98539.59;4972044;28;20042;-74
2022/04/11 05:38:59;;;;;;;6.47;3.55;;;;;;;5.90;71.06;98504.44;4971437;28;19921;-76
2022/04/11 05:41:26;;;;;;;4.57;2.50;;;;;;;6.14;71.19;98507.78;4970982;28;20081;-75
2022/04/11 05:43:53;;;;;;;4.70;2.70;;;;;;;6.31;69.64;98506.84;4969651;28;20057;-76
2022/04/11 05:46:23;;;;;;;3.92;2.53;;;;;;;6.26;70.08;98507.75;4971026;28;20031;-75
2022/04/11 05:49:09;;;;;;;5.00;2.55;;;;;;;6.04;69.28;98476.94;4971076;28;20405;-75
2022/04/11 05:51:35;;;;;;;3.60;2.40;;;;;;;6.04;70.28;98491.53;4971174;28;20043;-75
2022/04/11 05:54:01;;;;;;;5.30;2.80;;;;;;;5.99;70.33;98488.97;4971360;28;20046;-74
2022/04/11 05:56:27;;;;;;;4.28;3.00;;;;;;;5.76;70.24;98476.19;4955337;28;20043;-75
2022/04/11 05:58:53;;;;;;;5.13;2.60;;;;;;;5.94;71.46;98484.72;4955359;28;20126;-75
2022/04/11 06:01:20;;;;;;;6.22;2.70;;;;;;;5.73;71.22;98465.91;4971397;28;20058;-76
2022/04/11 06:03:45;;;;;;;4.18;2.60;;;;;;;6.01;71.47;98487.28;4971741;28;20039;-76
2022/04/11 06:06:11;;;;;;;4.55;2.90;;;;;;;5.74;69.96;98443.63;4971606;28;20039;-75
2022/04/11 06:08:37;;;;;;;4.15;2.78;;;;;;;6.01;70.97;98476.97;4973070;28;20038;-75
2022/04/11 06:11:03;;;;;;;;;;;;;;;6.14;69.97;98474.31;4955818;28;20039;-75
2022/04/11 06:13:29;;;;;;;4.85;3.20;;;;;;;6.05;69.31;98473.53;4955191;28;19921;-74
2022/04/11 06:15:58;;;;;;;6.47;3.15;;;;;;;5.81;70.13;98468.44;4971170;28;20039;-75
2022/04/11 06:18:24;;;;;;;4.68;3.33;;;;;;;5.51;71.38;98449.69;4955288;28;20063;-75
2022/04/11 06:20:51;;;;;;;5.68;2.95;;;;;;;5.60;71.71;98464.25;4971240;28;20453;-76
2022/04/11 06:23:18;;;;;;;4.22;2.97;;;;;;;5.74;71.95;98456.47;4936417;28;20390;-76
2022/04/11 06:25:44;;;;;;;8.40;4.32;;;;;;;5.74;71.87;98462.47;4935644;29;20054;-75
2022/04/11 06:28:10;;;;;;;6.38;3.40;;;;;;;5.74;71.56;98471.91;4971190;28;20131;-76
2022/04/11 06:30:35;;;;;;;6.10;3.10;;;;;;;5.65;71.44;98467.66;4970601;28;20046;-77
2022/04/11 06:33:01;;;;;;;4.53;2.90;;;;;;;5.70;72.17;98491.66;4972223;28;20046;-76
2022/04/11 06:35:27;;;;;;;6.53;2.90;;;;;;;5.64;72.21;98493.41;4957801;28;20047;-76
2022/04/11 06:37:53;;;;;;;5.60;3.15;;;;;;;5.42;72.04;98472.88;4975101;28;20489;-77
2022/04/11 06:40:20;;;;;;;4.63;3.60;;;;;;;5.65;71.21;98518.25;4958593;28;20039;-76
2022/04/11 06:42:47;;;;;;;6.32;3.85;;;;;;;5.54;71.54;98508.88;4939615;29;20031;-74
2022/04/11 06:45:31;;;;;;;5.68;3.15;;;;;;;5.55;72.52;98523.44;4961445;28;20572;-75
2022/04/11 06:48:01;;;;;;;5.25;3.50;;;;;;;5.57;72.40;98479.69;4955192;28;20039;-74
2022/04/11 06:50:28;;;;;;;4.65;3.63;;;;;;;5.56;71.99;98489.13;4958046;28;20498;-76
2022/04/11 06:52:54;;;;;;;5.88;3.92;;;;;;;5.65;71.94;98477.09;4957355;28;20050;-75
2022/04/11 06:55:20;;;;;;;6.03;3.78;;;;;;;5.70;72.21;98459.94;4974342;28;20045;-76
2022/04/11 06:57:45;;;;;;;5.47;3.78;;;;;;;5.80;71.78;98477.03;4975448;28;20142;-76
2022/04/11 07:00:11;;;;;;;5.50;4.20;;;;;;;5.84;71.29;98479.59;4975599;28;20074;-76
2022/04/11 07:02:37;;;;;;;6.18;4.10;;;;;;;5.79;71.29;98483.06;4975835;28;20043;-76
2022/04/11 07:05:04;;;;;;;6.80;4.60;;;;;;;5.68;71.39;98482.22;4957886;28;20035;-76
2022/04/11 07:07:31;;;;;;;6.05;4.60;;;;;;;5.41;71.84;98427.44;4975691;28;20037;-77
2022/04/11 07:09:58;;;;;;;8.38;4.93;;;;;;;5.68;71.13;98487.34;4974305;28;20517;-76
2022/04/11 07:12:24;;;;;;;6.88;4.38;;;;;;;5.73;72.07;98490.81;4973919;28;20046;-76
2022/04/11 07:14:51;;;;;;;6.97;5.43;;;;;;;5.52;71.14;98471.13;4957817;28;20049;-77
2022/04/11 07:17:17;;;;;;;6.45;4.53;;;;;;;5.74;72.49;98490.78;4975513;28;20108;-75
2022/04/11 07:19:43;;;;;;;6.50;4.28;;;;;;;5.81;72.29;98489.88;4975109;28;20062;-76
2022/04/11 07:22:08;;;;;;;6.43;4.53;;;;;;;5.89;71.41;98476.16;4954213;28;20031;-75
2022/04/11 07:24:37;;;;;;;6.88;5.53;;;;;;;5.91;70.96;98482.13;4965751;28;20058;-76
2022/04/11 07:27:03;;;;;;;8.10;5.85;;;;;;;5.76;70.98;98475.31;4975181;28;20043;-74
2022/04/11 07:29:29;;;;;;;7.50;5.20;;;;;;;5.65;72.06;98452.22;4954735;28;20051;-75
2022/04/11 07:31:55;;;;;;;7.18;5.63;;;;;;;5.80;71.74;98466.75;4969488;28;20197;-73
2022/04/11 07:34:21;;;;;;;8.18;5.78;;;;;;;5.91;70.70;98506.19;4957762;28;20054;-75
2022/04/11 07:36:47;;;;;;;7.80;5.88;;;;;;;5.93;70.65;98507.03;4973228;28;20046;-75
2022/04/11 07:39:14;;;;;;;7.35;6.00;;;;;;;5.94;71.51;98521.63;4974221;28;20038;-77
2022/04/11 07:41:40;;;;;;;7.47;5.68;;;;;;;6.02;71.09;98532.75;4957853;28;20071;-75
2022/04/11 07:44:05;;;;;;;9.38;7.22;;;;;;;5.95;70.85;98549.06;4975190;28;20066;-76
2022/04/11 07:46:31;;;;;;;8.80;7.50;;;;;;;5.85;71.11;98521.63;4974446;28;20547;-76
2022/04/11 07:48:57;;;;;;;9.68;6.80;;;;;;;5.96;70.67;98519.91;4973533;28;20490;-76
2022/04/11 07:51:22;;;;;;;8.07;6.20;;;;;;;5.90;71.11;98522.44;4975327;28;20035;-75
2022/04/11 07:53:48;;;;;;;8.13;6.18;;;;;;;6.00;70.23;98533.59;4973719;28;20058;-74
2022/04/11 07:56:14;;;;;;;8.63;6.35;;;;;;;5.89;70.90;98517.31;4973699;28;20046;-75
2022/04/11 07:58:40;;;;;;;9.55;7.57;;;;;;;5.77;70.74;98520.78;4973672;28;20070;-76
2022/04/11 08:01:05;;;;;;;7.72;6.30;;;;;;;5.79;71.66;98511.34;4973616;28;20031;-75
2022/04/11 08:03:31;;;;;;;18.17;13.48;;;;;;;5.71;71.22;98474.50;4974164;28;20047;-76
2022/04/11 08:05:57;;;;;;;9.10;7.10;;;;;;;5.93;70.49;98512.19;4974524;28;20489;-75
2022/04/11 08:08:22;;;;;;;8.80;6.63;;;;;;;5.98;70.82;98507.88;4974776;28;20530;-76
2022/04/11 08:10:48;;;;;;;11.07;8.25;;;;;;;5.84;70.53;98483.88;4974484;28;20518;-76
2022/04/11 08:13:14;;;;;;;10.88;7.75;;;;;;;5.60;71.38;98477.97;4973334;28;20054;-75
2022/04/11 08:15:39;;;;;;;10.98;6.78;;;;;;;5.74;72.06;98474.50;4973105;28;20408;-76
2022/04/11 08:18:05;;;;;;;8.38;6.70;;;;;;;5.72;71.65;98476.19;4956865;28;20130;-75
2022/04/11 08:20:31;;;;;;;7.95;6.68;;;;;;;5.69;72.12;98465.94;4973674;28;20062;-76
2022/04/11 08:22:57;;;;;;;8.55;7.15;;;;;;;5.58;71.79;98456.53;4974311;28;20034;-76
2022/04/11 08:25:23;;;;;;;8.43;7.10;;;;;;;5.19;72.34;98425.78;4972682;28;20039;-75
2022/04/11 08:27:50;;;;;;;8.65;6.65;;;;;;;5.30;73.57;98478.03;4956844;28;20421;-74
2022/04/11 08:30:16;;;;;;;8.85;7.50;;;;;;;5.09;74.83;98474.66;4972554;28;20045;-76
2022/04/11 08:32:51;;;;;;;8.75;6.95;;;;;;;5.19;75.54;98505.50;4956335;28;20038;-76
2022/04/11 08:35:19;;;;;;;10.50;8.10;;;;;;;4.87;75.30;98465.25;4972790;28;20054;-77
2022/04/11 08:37:45;;;;;;;9.02;6.38;;;;;;;5.01;75.59;98470.38;4937447;29;20097;-76
2022/04/11 08:40:11;;;;;;;;;;;;;;;5.50;75.60;98525.16;4950829;28;20624;-75
2022/04/11 08:42:38;;;;;;;7.88;5.75;;;;;;;5.32;74.76;98476.34;4972584;28;20020;-75
2022/04/11 08:45:04;;;;;;;7.78;6.50;;;;;;;5.50;74.63;98512.31;4953467;28;20395;-76
2022/04/11 08:47:30;;;;;;;8.50;6.30;;;;;;;5.72;73.96;98525.94;4952283;28;20097;-75
2022/04/11 08:49:56;;;;;;;8.88;6.75;;;;;;;5.55;72.88;98491.72;4956293;28;20043;-76
2022/04/11 08:52:22;;;;;;;7.65;4.97;;;;;;;5.78;74.07;98519.94;4972681;28;20129;-77
2022/04/11 08:54:48;;;;;;;6.53;5.47;;;;;;;5.75;72.94;98477.06;4973532;28;20039;-77
2022/04/11 08:57:13;;;;;;;;;;;;;;;6.08;72.45;98509.53;4940286;28;20043;-77
2022/04/11 08:59:39;;;;;;;7.75;5.50;;;;;;;6.00;72.19;98513.88;4971882;28;20436;-75
2022/04/11 09:02:09;;;;;;;7.50;6.15;;;;;;;5.94;72.09;98492.44;4973930;28;20486;-77
2022/04/11 09:04:51;;;;;;;6.32;4.90;;;;;;;6.21;71.73;98515.50;4972320;28;20042;-76
2022/04/11 09:07:17;;;;;;;6.55;4.57;;;;;;;6.31;71.32;98514.56;4956357;28;20043;-76
2022/04/11 09:09:43;;;;;;;7.63;5.38;;;;;;;6.19;70.94;98495.78;4973672;28;20178;-77
2022/04/11 09:12:12;;;;;;;7.35;5.57;;;;;;;6.07;70.29;98492.38;4956372;28;20513;-77
2022/04/11 09:14:38;;;;;;;12.35;8.75;;;;;;;6.22;70.57;98518.91;4956544;28;20039;-75
2022/04/11 09:17:04;;;;;;;6.68;5.20;;;;;;;6.34;71.24;98532.59;4973400;28;20113;-76
2022/04/11 09:19:31;;;;;;;6.38;5.10;;;;;;;6.33;70.86;98519.75;4973150;28;20109;-77
2022/04/11 09:21:57;;;;;;;5.75;4.43;;;;;;;6.24;70.40;98499.19;4971623;28;20031;-76
2022/04/11 09:24:24;;;;;;;;;;;;;;;6.56;70.06;98523.03;4953133;28;20131;-76
2022/04/11 09:26:54;;;;;;;;;;;;;;;6.77;69.30;98518.59;4968191;28;19914;-77
2022/04/11 09:29:20;;;;;;;5.03;4.10;;;;;;;6.74;69.29;98521.22;4984028;28;20289;-76
2022/04/11 09:31:46;;;;;;;5.70;4.10;;;;;;;6.65;68.93;98519.53;4952734;28;20036;-77
2022/04/11 09:34:18;;;;;;;7.00;3.88;;;;;;;6.61;69.93;98526.44;4970286;28;20514;-78
2022/04/11 09:36:48;;;;;;;5.72;3.83;;;;;;;6.58;69.91;98516.13;4972921;28;20141;-78
2022/04/11 09:39:14;;;;;;;6.18;4.57;;;;;;;6.58;69.72;98526.44;4955848;28;20046;-77
2022/04/11 09:41:46;;;;;;;8.20;5.97;;;;;;;6.38;69.56;98525.72;4955428;28;20046;-78
2022/04/11 09:44:25;;;;;;;6.35;4.63;;;;;;;6.47;70.31;98538.53;4956110;28;20069;-76
2022/04/11 09:46:54;;;;;;;7.38;4.13;;;;;;;6.54;70.58;98545.34;4972253;28;20042;-78
2022/04/11 09:49:20;;;;;;;6.35;4.53;;;;;;;6.24;69.50;98494.03;4971634;28;20101;-76
2022/04/11 09:52:12;;;;;;;5.28;4.07;;;;;;;6.62;69.07;98555.63;4973262;28;20429;-78
2022/04/11 09:54:44;;;;;;;7.03;4.55;;;;;;;6.46;69.37;98516.22;4971872;28;20050;-79
2022/04/11 09:57:11;;;;;;;8.00;5.53;;;;;;;6.58;69.00;98547.06;4957270;28;20042;-78
2022/04/11 09:59:39;;;;;;;6.25;5.18;;;;;;;6.60;69.24;98550.50;4940193;28;20082;-76
2022/04/11 10:02:06;;;;;;;8.07;4.20;;;;;;;6.36;69.61;98488.78;4972157;28;20039;-77
2022/04/11 10:04:32;;;;;;;6.25;4.20;;;;;;;6.62;69.83;98533.28;4956120;28;20449;-76
2022/04/11 10:06:58;;;;;;;5.43;4.15;;;;;;;6.71;68.96;98531.53;4955702;28;20829;-78
2022/04/11 10:09:24;;;;;;;6.05;4.28;;;;;;;6.82;69.29;98543.47;4973542;28;20132;-78
2022/04/11 10:11:52;;;;;;;6.93;3.92;;;;;;;6.75;68.94;98543.53;4975489;28;20038;-76
2022/04/11 10:14:23;;;;;;;6.63;3.85;;;;;;;6.60;69.05;98539.34;4976903;28;20062;-76
2022/04/11 10:16:57;;;;;;;5.00;4.38;;;;;;;6.42;69.37;98524.00;4944750;28;20054;-75
2022/04/11 10:19:24;;;;;;;7.45;5.15;;;;;;;6.33;69.87;98527.47;4959456;28;20054;-75
2022/04/11 10:21:51;;;;;;;6.28;4.15;;;;;;;6.62;69.85;98561.63;4975191;28;20142;-76
2022/04/11 10:24:23;;;;;;;7.03;4.50;;;;;;;6.44;69.51;98522.25;4943359;28;20129;-77
2022/04/11 10:26:53;;;;;;;5.78;4.20;;;;;;;6.68;69.67;98549.56;4976245;28;20046;-76
2022/04/11 10:29:34;;;;;;;5.90;4.30;;;;;;;6.85;68.75;98571.81;4975482;28;20046;-77
2022/04/11 10:32:14;;;;;;;7.20;5.13;;;;;;;6.75;69.09;98575.31;4976121;28;20051;-75
2022/04/11 10:34:43;;;;;;;5.65;4.32;;;;;;;6.76;68.95;98582.16;4940615;28;20554;-77
2022/04/11 10:37:10;;;;;;;6.45;4.43;;;;;;;6.66;69.26;98574.50;4969801;28;20532;-76
2022/04/11 10:39:37;;;;;;;7.10;4.38;;;;;;;6.71;69.50;98583.06;4959461;28;20058;-76
2022/04/11 10:42:05;;;;;;;5.53;4.47;;;;;;;6.69;69.37;98584.78;4948234;29;20031;-76
2022/04/11 10:44:48;;;;;;;5.03;3.90;;;;;;;6.66;69.37;98584.81;4973621;28;20046;-76
2022/04/11 10:47:15;;;;;;;5.25;3.60;;;;;;;6.70;69.70;98587.38;4956212;28;20055;-78
2022/04/11 10:49:58;;;;;;;5.22;3.83;;;;;;;6.67;69.43;98596.84;4974496;28;20031;-76
2022/04/11 10:52:31;;;;;;;4.63;3.20;;;;;;;6.77;69.39;98603.66;4974871;28;20081;-76
2022/04/11 10:55:18;;;;;;;4.78;3.22;;;;;;;6.80;68.20;98601.06;4975820;28;20046;-75
2022/04/11 10:57:47;;;;;;;6.43;3.70;;;;;;;6.65;69.08;98608.88;4974904;28;20070;-76
2022/04/11 11:00:19;;;;;;;4.63;3.55;;;;;;;6.45;68.92;98612.38;4975895;28;20031;-77
2022/04/11 11:02:48;;;;;;;5.78;3.63;;;;;;;6.50;70.59;98615.78;4974528;28;20122;-76
2022/04/11 11:05:36;;;;;;;6.30;3.50;;;;;;;6.43;70.42;98613.28;4975697;28;20560;-75
2022/04/11 11:08:17;;;;;;;6.13;3.90;;;;;;;6.47;70.33;98628.72;4974719;28;20042;-75
2022/04/11 11:11:23;;;;;;;;;;;;;;;6.55;70.49;98633.81;4975672;28;20057;-76
2022/04/11 11:13:48;;;;;;;3.72;3.20;;;;;;;6.54;69.79;98629.53;4990695;28;19918;-76
2022/04/11 11:16:17;;;;;;;5.75;3.72;;;;;;;6.54;69.53;98632.97;4974839;28;20039;-75
2022/04/11 11:18:46;;;;;;;4.28;2.65;;;;;;;6.69;69.53;98633.75;4975547;28;20073;-76
2022/04/11 11:21:37;;;;;;;5.88;4.03;;;;;;;6.60;68.75;98644.97;4957664;28;20513;-75
2022/04/11 11:24:12;;;;;;;4.63;3.20;;;;;;;6.62;69.61;98650.97;4952778;28;20133;-76
2022/04/11 11:26:45;;;;;;;4.35;3.20;;;;;;;6.65;69.11;98663.00;4975194;28;20045;-76
2022/04/11 11:29:16;;;;;;;4.55;2.95;;;;;;;6.55;68.94;98655.31;4962075;28;20053;-76
2022/04/11 11:31:43;;;;;;;4.63;3.20;;;;;;;6.63;68.93;98679.31;4974115;28;20070;-75
2022/04/11 11:34:11;;;;;;;4.47;2.90;;;;;;;6.36;68.77;98663.94;4973827;28;20034;-75
2022/04/11 11:36:37;;;;;;;6.82;3.75;;;;;;;6.30;69.89;98669.97;4922778;29;20046;-76
2022/04/11 11:39:19;;;;;;;7.65;4.35;;;;;;;6.02;71.47;98646.03;4968531;28;20050;-77
2022/04/11 11:41:49;;;;;;;5.40;3.70;;;;;;;5.91;72.66;98611.72;4973853;28;20034;-75
2022/04/11 11:44:15;;;;;;;5.82;3.67;;;;;;;6.06;71.69;98593.66;4974959;28;20482;-75
2022/04/11 11:46:53;;;;;;;5.30;3.58;;;;;;;6.32;71.54;98596.16;4942633;29;20089;-77
2022/04/11 11:49:20;;;;;;;3.80;2.70;;;;;;;6.43;70.44;98546.31;4968979;28;20043;-74